Create Custom Reports and Graphics: Custom Report

Siberia 8700'

OV

7/15/24 11:15 AM (-07:00)
Updated Every 15 Minutes
Temp 64.0 °F   3.4
RH 41 %   17
Wet Bulb 50.1 °F   1.6
Dew Pt 39.7 °F   6.1
Wind Dir N | 0 °
Wind Spd 0.0 mph   0.0
Wind Gust 0.1 mph   0.0
WindChill 64.1 °F   4.7
Daily Min Temp 56.1 °F   0.1
Daily Max Temp 64.9 °F   3.0

Last 24 Hours

OV-Siberia 8700'

Hourly Data | America/Los_Angeles
as of 7/15/24 11:28 AM PDT
Date & Time Temp (°F) RH (%) Dew Pt (°F) Wet Bulb (°F) Wind Dir (°) Wind Spd (mph) Wind Gust (mph) WindChill (°F) Daily Min Temp (°F) Daily Max Temp (°F)
7/15/24 - 1100 64.0 43 40.8 50.6 N | 0 0.0 0.1 63.3 56.1 64.9
7/15/24 - 1000 62.5 38 36.8 48.3 SSE | 163 0.0 0.1 61.8 56.1 62.5
7/15/24 - 0900 61.3 37 34.5 46.9 SSE | 163 0.0 0.1 61.0 56.1 61.6
7/15/24 - 0800 60.7 31 30.2 45.1 SSE | 163 0.0 0.1 60.9 56.1 61.6
7/15/24 - 0700 60.8 36 33.4 46.3 SSE | 163 0.0 0.1 60.5 56.1 61.6
7/15/24 - 0600 59.6 42 36.4 47.0 SSE | 163 0.0 0.1 59.8 56.1 60.2
7/15/24 - 0500 59.9 43 37.4 47.5 SSE | 163 0.0 0.1 58.1 56.1 59.9
7/15/24 - 0400 57.9 49 39.0 47.4 SSE | 163 0.0 0.1 56.9 56.1 57.9
7/15/24 - 0300 57.1 50 38.5 46.8 SSE | 162 0.0 0.1 57.1 56.1 57.9
7/15/24 - 0200 57.0 52 39.5 47.2 SSE | 162 0.0 0.1 56.8 56.1 57.9
7/15/24 - 0100 57.3 49 38.1 46.7 SSE | 162 0.0 0.1 57.3 56.9 57.9
7/15/24 - 0000 57.6 51 39.7 47.6 SSE | 162 0.0 0.1 57.2 56.2 65.6
7/14/24 - 2300 57.4 52 40.2 47.7 SSE | 162 0.0 0.1 57.5 56.2 65.6
7/14/24 - 2200 57.8 50 39.2 47.4 SSE | 162 0.0 0.1 59.8 56.2 65.6
7/14/24 - 2100 60.5 39 35.4 46.9 SSE | 163 0.0 0.1 60.0 56.2 65.6
7/14/24 - 2000 59.3 49 40.0 48.4 SSE | 162 0.0 0.1 60.0 56.2 65.6
7/14/24 - 1900 63.1 29 30.1 46.1 SSE | 163 0.0 0.1 62.3 56.2 65.6
7/14/24 - 1800 61.9 35 33.7 46.9 SSE | 163 0.0 0.1 60.9 56.2 65.6
7/14/24 - 1700 59.5 48 39.9 48.4 SSE | 163 0.0 0.1 59.6 56.2 65.6
7/14/24 - 1600 59.9 53 42.6 49.8 SSE | 162 0.0 0.1 59.9 56.2 65.6
7/14/24 - 1500 60.5 60 46.5 52.0 SSE | 163 0.0 0.1 63.0 56.2 65.6
7/14/24 - 1400 64.5 48 44.4 52.5 SSE | 163 0.0 0.1 63.5 56.2 65.6
7/14/24 - 1300 62.3 49 42.8 50.9 SSE | 162 0.0 0.1 61.1 56.2 63.0
7/14/24 - 1200 60.1 57 44.8 51.0 SSE | 162 0.0 0.1 59.9 56.2 62.0
7/14/24 - 1100 58.7 64 46.6 51.4 SSE | 162 0.0 0.1 57.9 56.2 62.0
Max 64.5 64 46.6 52.5 - 0.0 0.1 63.5 56.9 65.6
Avg 60.0 46 38.8 48.3 - 0.0 0.1 59.8 - -
Min 57.0 29 30.1 45.1 - 0.0 0.1 56.8 56.1 57.9

Last 30 Days

OV-Siberia 8700'

Daily Data | America/Los_Angeles
as of 7/15/24 11:28 AM PDT
Date Daily Max Temp (°F) Time of Max Temp Daily Min Temp (°F) Time of Min Temp Wind Spd (mph) Daily Max Wind (mph) Time of Max Wind Max Wind Dir (°) Wet Bulb (°F) WetB Hrs <28F (hrs)
7/14/24 65.6 1356 56.2 0743 0.0 0.1 2029 SSE | 159 49.4 0.0
7/13/24 75.5 1304 52.2 1816 0.0 0.1 2118 SSE | 160 50.4 0.0
7/12/24 79.7 1426 65.8 0034 0.0 0.1 0720 SSE | 165 49.4 0.0
7/11/24 77.0 1641 61.1 0527 0.0 0.1 0838 SSE | 159 49.3 0.0
7/10/24 76.6 1540 62.2 0354 0.0 0.1 0500 SSE | 161 47.9 0.0
7/9/24 74.3 1556 62.7 2136 0.0 0.1 0743 SSE | 162 47.4 0.0
7/8/24 77.1 1556 64.7 2326 0.0 0.1 0049 SSE | 165 49.4 0.0
7/7/24 78.5 1454 65.4 0532 0.0 0.1 1305 SSE | 164 50.1 0.0
7/6/24 81.0 1425 62.5 0406 0.0 0.1 2200 SSE | 166 49.3 0.0
7/5/24 79.9 1616 59.7 0523 0.0 0.1 1006 SSE | 160 50.2 0.0
7/4/24 74.9 1549 60.0 0543 0.0 0.1 1551 SSE | 161 48.8 0.0
7/3/24 74.8 1616 54.7 0522 0.0 0.1 2221 SSE | 164 47.1 0.0
7/2/24 74.7 1533 50.1 0508 0.0 0.1 0123 SSE | 163 46.1 0.0
7/1/24 67.5 1607 48.3 0338 0.0 0.1 1941 SSE | 160 46.9 0.0
6/30/24 63.2 1634 49.0 2347 0.0 0.1 2103 SSE | 166 44.9 0.0
6/29/24 62.4 1528 49.9 0541 0.0 0.1 1825 SSE | 162 44.1 0.0
6/28/24 62.5 1704 49.1 0012 0.0 0.1 1646 SSE | 160 42.3 0.0
6/27/24 58.8 1610 46.6 0522 0.0 0.1 2354 SSE | 160 41.8 0.0
6/26/24 60.0 1205 48.2 2351 17.4 61.1 1330 SSE | 150 48.0 0.0
6/25/24 67.6 1326 53.9 0309 22.6 44.5 0743 S | 181 51.1 0.0
6/24/24 64.7 1408 54.0 0522 35.4 62.7 0412 S | 189 47.9 0.0
6/23/24 66.2 1616 53.8 2301 34.7 58.9 1241 SSW | 200 47.6 0.0
6/22/24 70.1 1621 56.2 0236 21.8 50.0 1637 S | 186 48.0 0.0
6/21/24 70.4 1611 50.8 0443 14.8 30.7 0324 NE | 37 45.2 0.0
6/20/24 65.1 1438 45.0 0400 15.0 31.7 0812 N | 356 42.4 0.0
6/19/24 58.9 1612 42.0 0412 6.6 33.6 1340 S | 171 38.9 0.0
6/18/24 52.4 1330 34.8 0312 13.4 35.3 0105 NE | 48 32.5 3.8
6/17/24 46.8 1526 36.1 2359 9.5 36.0 1345 N | 9 30.7 0.8
6/16/24 55.2 1336 38.5 2357 27.9 57.1 2310 SSW | 197 37.9 0.0
6/15/24 57.1 1640 42.9 0501 28.0 54.1 0017 SSW | 197 36.1 0.0
Max 81.0 - 65.8 - 35.4 62.7 - - 51.1 3.8
Avg - - - - 8.2 - - - 45.4 -
Min 46.8 - 34.8 - 0.0 0.1 - - 30.7 0.0
Calm: 0.0%
Calm: 0.0%